createdAt,value
2022-11-22T00:02:01.666Z,7.42
2022-11-22T00:04:33.425Z,7.42
2022-11-22T00:07:03.247Z,7.43
2022-11-22T00:09:34.172Z,7.44
2022-11-22T00:12:04.451Z,7.44
2022-11-22T00:14:33.420Z,7.43
2022-11-22T00:17:02.565Z,7.45
2022-11-22T00:19:33.490Z,7.45
2022-11-22T00:22:03.058Z,7.46
2022-11-22T00:24:32.481Z,7.47
2022-11-22T00:27:01.338Z,7.47
2022-11-22T00:29:30.617Z,7.48
2022-11-22T00:31:59.814Z,7.49
2022-11-22T00:34:29.170Z,7.44
2022-11-22T00:36:59.106Z,7.46
2022-11-22T00:39:29.089Z,7.48
2022-11-22T00:41:59.106Z,7.49
2022-11-22T00:44:28.367Z,7.49
2022-11-22T00:46:58.585Z,7.49
2022-11-22T00:49:28.007Z,7.49
2022-11-22T00:52:01.087Z,7.48
2022-11-22T00:54:29.878Z,7.49
2022-11-22T00:56:59.780Z,7.48
2022-11-22T00:59:29.106Z,7.47
2022-11-22T01:01:59.477Z,7.48
2022-11-22T01:04:28.555Z,7.50
2022-11-22T01:06:59.288Z,7.49
2022-11-22T01:09:28.817Z,7.48
2022-11-22T01:11:58.405Z,7.48
2022-11-22T01:14:27.685Z,7.49
2022-11-22T01:16:56.863Z,7.50
2022-11-22T01:19:25.886Z,7.51
2022-11-22T01:21:55.372Z,7.51
2022-11-22T01:24:25.995Z,7.52
2022-11-22T01:26:55.644Z,7.53
2022-11-22T01:29:26.302Z,7.53
2022-11-22T01:31:55.828Z,7.52
2022-11-22T01:34:27.390Z,7.52
2022-11-22T01:36:58.017Z,7.53
2022-11-22T01:39:28.748Z,7.53
2022-11-22T01:41:57.957Z,7.54
2022-11-22T01:44:31.137Z,7.53
2022-11-22T01:47:06.280Z,7.55
2022-11-22T01:49:43.780Z,7.54
2022-11-22T01:52:19.518Z,7.54
2022-11-22T01:54:57.180Z,7.53
2022-11-22T01:57:32.057Z,7.54
2022-11-22T02:00:06.407Z,7.54
2022-11-22T02:02:36.367Z,7.53
2022-11-22T02:05:09.928Z,7.51
2022-11-22T02:07:50.754Z,7.50
2022-11-22T02:10:26.369Z,7.52
2022-11-22T02:12:58.666Z,7.48
2022-11-22T02:15:28.246Z,7.47
2022-11-22T02:17:59.402Z,7.44
2022-11-22T02:20:29.635Z,7.45
2022-11-22T02:23:11.618Z,7.44
2022-11-22T02:25:53.320Z,7.43
2022-11-22T02:28:23.032Z,7.41
2022-11-22T02:30:52.541Z,7.39
2022-11-22T02:33:22.935Z,7.38
2022-11-22T02:35:53.483Z,7.38
2022-11-22T02:38:27.612Z,7.38
2022-11-22T02:41:04.505Z,7.39
2022-11-22T02:43:39.151Z,7.39
2022-11-22T02:46:11.704Z,7.37
2022-11-22T02:48:43.793Z,7.37
2022-11-22T02:51:16.956Z,7.37
2022-11-22T02:53:47.515Z,7.34
2022-11-22T02:56:19.167Z,7.35
2022-11-22T02:58:48.713Z,7.34
2022-11-22T03:01:17.798Z,7.31
2022-11-22T03:03:47.702Z,7.28
2022-11-22T03:06:16.849Z,7.23
2022-11-22T03:08:53.189Z,7.26
2022-11-22T03:11:26.729Z,7.28
2022-11-22T03:13:56.539Z,7.29
2022-11-22T03:16:27.206Z,7.28
2022-11-22T03:18:57.216Z,7.30
2022-11-22T03:21:26.550Z,7.29
2022-11-22T03:23:56.745Z,7.28
2022-11-22T03:26:29.832Z,7.27
2022-11-22T03:28:59.518Z,7.27
2022-11-22T03:31:30.003Z,7.25
2022-11-22T03:33:59.475Z,7.23
2022-11-22T03:36:29.565Z,7.24
2022-11-22T03:39:00.560Z,7.24
2022-11-22T03:41:31.449Z,7.20
2022-11-22T03:44:00.012Z,7.17
2022-11-22T03:46:30.182Z,7.15
2022-11-22T03:49:00.024Z,7.13
2022-11-22T03:51:29.418Z,7.09
2022-11-22T03:53:59.672Z,7.11
2022-11-22T03:56:30.601Z,7.06
2022-11-22T03:58:59.767Z,7.04
2022-11-22T04:01:29.475Z,7.02
2022-11-22T04:03:59.628Z,7.00
2022-11-22T04:06:29.787Z,6.97
2022-11-22T04:08:58.958Z,6.93
2022-11-22T04:11:27.506Z,6.89
2022-11-22T04:14:16.927Z,6.87
2022-11-22T04:16:46.398Z,6.83
2022-11-22T04:19:15.402Z,6.82
2022-11-22T04:21:42.846Z,6.83
2022-11-22T04:24:31.075Z,6.85
2022-11-22T04:27:01.423Z,6.87
2022-11-22T04:29:33.291Z,6.87
2022-11-22T04:32:20.530Z,6.88
2022-11-22T04:34:50.834Z,6.87
2022-11-22T04:37:20.713Z,6.90
2022-11-22T04:39:50.567Z,6.88
2022-11-22T04:42:38.139Z,6.87
2022-11-22T04:45:11.985Z,6.87
2022-11-22T04:48:00.680Z,6.85
2022-11-22T04:50:48.671Z,6.87
2022-11-22T04:53:20.701Z,6.87
2022-11-22T04:55:50.421Z,6.89
2022-11-22T04:58:20.461Z,6.89
2022-11-22T05:00:51.284Z,6.88
2022-11-22T05:03:21.390Z,6.91
2022-11-22T05:05:50.597Z,6.89
2022-11-22T05:08:21.040Z,6.88
2022-11-22T05:11:00.094Z,6.89
2022-11-22T05:13:32.963Z,6.87
2022-11-22T05:16:06.843Z,6.85
2022-11-22T05:18:36.473Z,6.84
2022-11-22T05:21:07.936Z,6.84
2022-11-22T05:23:54.664Z,6.85
2022-11-22T05:26:24.620Z,6.85
2022-11-22T05:28:54.008Z,6.84
2022-11-22T05:31:28.982Z,6.84
2022-11-22T05:33:59.458Z,6.84
2022-11-22T05:36:29.263Z,6.86
2022-11-22T05:38:59.420Z,6.82
2022-11-22T05:41:29.646Z,6.79
2022-11-22T05:43:59.892Z,6.80
2022-11-22T05:46:32.491Z,6.79
2022-11-22T05:49:02.216Z,6.82
2022-11-22T05:51:34.658Z,6.82
2022-11-22T05:54:05.885Z,6.82
2022-11-22T05:56:34.972Z,6.80
2022-11-22T05:59:06.064Z,6.76
2022-11-22T06:01:37.158Z,6.75
2022-11-22T06:04:08.489Z,6.74
2022-11-22T06:06:38.753Z,6.67
2022-11-22T06:09:08.163Z,6.68
2022-11-22T06:11:38.702Z,6.71
2022-11-22T06:14:12.468Z,6.73
2022-11-22T06:16:44.465Z,6.73
2022-11-22T06:19:14.757Z,6.73
2022-11-22T06:21:44.530Z,6.75
2022-11-22T06:24:14.524Z,6.75
2022-11-22T06:26:45.068Z,6.75
2022-11-22T06:29:15.054Z,6.74
2022-11-22T06:31:46.378Z,6.69
2022-11-22T06:34:15.551Z,6.68
2022-11-22T06:36:44.542Z,6.66
2022-11-22T06:39:15.680Z,6.64
2022-11-22T06:41:45.235Z,6.66
2022-11-22T06:44:16.695Z,6.64
2022-11-22T06:46:47.623Z,6.61
2022-11-22T06:49:16.743Z,6.61
2022-11-22T06:51:46.184Z,6.66
2022-11-22T06:54:16.673Z,6.66
2022-11-22T06:56:46.986Z,6.67
2022-11-22T06:59:17.702Z,6.70
2022-11-22T07:01:49.258Z,6.70
2022-11-22T07:04:19.206Z,6.71
2022-11-22T07:06:50.331Z,6.68
2022-11-22T07:09:19.438Z,6.68
2022-11-22T07:11:49.006Z,6.69
2022-11-22T07:14:18.992Z,6.68
2022-11-22T07:16:50.861Z,6.68
2022-11-22T07:19:20.032Z,6.60
2022-11-22T07:21:50.888Z,6.61
2022-11-22T07:24:20.420Z,6.63
2022-11-22T07:26:49.450Z,6.59
2022-11-22T07:29:19.428Z,6.57
2022-11-22T07:31:49.688Z,6.61
2022-11-22T07:34:19.211Z,6.61
2022-11-22T07:36:54.368Z,6.61
2022-11-22T07:39:26.965Z,6.62
2022-11-22T07:41:57.102Z,6.62
2022-11-22T07:44:27.421Z,6.64
2022-11-22T07:46:58.402Z,6.64
2022-11-22T07:49:28.664Z,6.60
2022-11-22T07:51:59.596Z,6.62
2022-11-22T07:54:29.525Z,6.63
2022-11-22T07:56:58.548Z,6.64
2022-11-22T07:59:28.423Z,6.64
2022-11-22T08:01:59.694Z,6.65
2022-11-22T08:04:28.190Z,6.68
2022-11-22T08:06:57.293Z,6.70
2022-11-22T08:09:26.422Z,6.69
2022-11-22T08:11:56.710Z,6.70
2022-11-22T08:14:27.054Z,6.68
2022-11-22T08:16:56.590Z,6.74
2022-11-22T08:19:28.596Z,6.69
2022-11-22T08:21:58.799Z,6.68
2022-11-22T08:24:28.918Z,6.72
2022-11-22T08:26:58.872Z,6.76
2022-11-22T08:29:30.082Z,6.78
2022-11-22T08:31:58.832Z,6.77
2022-11-22T08:34:29.567Z,6.81
2022-11-22T08:36:59.121Z,6.84
2022-11-22T08:39:29.460Z,6.85
2022-11-22T08:41:59.666Z,6.84
2022-11-22T08:44:29.551Z,6.84
2022-11-22T08:46:59.124Z,6.90
2022-11-22T08:49:30.296Z,6.89
2022-11-22T08:52:00.781Z,6.91
2022-11-22T08:54:33.553Z,6.94
2022-11-22T08:57:06.420Z,6.93
2022-11-22T08:59:37.197Z,6.95
2022-11-22T09:02:07.361Z,6.96
2022-11-22T09:04:39.415Z,6.98
2022-11-22T09:09:59.928Z,6.91
2022-11-22T09:12:29.501Z,6.94
2022-11-22T09:14:58.516Z,6.91
2022-11-22T09:17:28.215Z,6.91
2022-11-22T09:19:59.743Z,6.95
2022-11-22T09:22:29.457Z,6.94
2022-11-22T09:24:59.573Z,6.96
2022-11-22T09:27:28.640Z,6.98
2022-11-22T09:29:58.696Z,7.00
2022-11-22T09:32:32.307Z,6.94
2022-11-22T09:35:04.756Z,6.97
2022-11-22T09:37:34.888Z,7.00
2022-11-22T09:40:07.051Z,7.05
2022-11-22T09:43:03.189Z,7.09
2022-11-22T09:46:04.019Z,7.09
2022-11-22T09:49:00.441Z,7.15
2022-11-22T09:51:40.482Z,7.15
2022-11-22T09:54:16.262Z,7.20
2022-11-22T09:56:47.933Z,7.15
2022-11-22T09:59:24.078Z,7.20
2022-11-22T10:02:17.727Z,7.17
2022-11-22T10:04:53.285Z,7.17
2022-11-22T10:07:32.762Z,7.13
2022-11-22T10:10:09.024Z,7.19
2022-11-22T10:12:46.853Z,7.22
2022-11-22T10:15:31.032Z,7.22
2022-11-22T10:18:05.725Z,7.23
2022-11-22T10:20:45.719Z,7.26
2022-11-22T10:23:23.760Z,7.30
2022-11-22T10:25:59.831Z,7.35
2022-11-22T10:28:36.380Z,7.34
2022-11-22T10:31:17.890Z,7.29
2022-11-22T10:34:01.855Z,7.27
2022-11-22T10:36:43.768Z,7.25
2022-11-22T10:39:38.789Z,7.26
2022-11-22T10:42:35.772Z,7.28
2022-11-22T10:45:18.763Z,7.22
2022-11-22T10:48:01.920Z,7.21
2022-11-22T10:50:47.928Z,7.21
2022-11-22T10:53:31.925Z,7.25
2022-11-22T10:56:15.202Z,7.30
2022-11-22T10:59:11.051Z,7.28
2022-11-22T11:01:50.636Z,7.32
2022-11-22T11:04:21.391Z,7.35
2022-11-22T11:07:12.199Z,7.37
2022-11-22T11:12:47.962Z,7.34
2022-11-22T11:15:24.567Z,7.35
2022-11-22T11:18:02.333Z,7.35
2022-11-22T11:20:38.029Z,7.37
2022-11-22T11:23:14.727Z,7.40
2022-11-22T11:25:46.922Z,7.41
2022-11-22T11:28:24.048Z,7.44
2022-11-22T11:30:56.611Z,7.39
2022-11-22T11:33:32.102Z,7.41
2022-11-22T11:36:08.276Z,7.46
2022-11-22T11:38:50.002Z,7.50
2022-11-22T11:41:27.806Z,7.49
2022-11-22T11:44:01.296Z,7.48
2022-11-22T11:46:46.315Z,7.49
2022-11-22T11:49:18.117Z,7.50
2022-11-22T11:51:49.441Z,7.52
2022-11-22T11:54:22.585Z,7.51
2022-11-22T11:56:54.432Z,7.51
2022-11-22T11:59:32.163Z,7.54
2022-11-22T12:02:10.705Z,7.54
2022-11-22T12:04:53.254Z,7.56
2022-11-22T12:07:27.170Z,7.60
2022-11-22T12:09:57.258Z,7.65
2022-11-22T12:12:45.140Z,7.65
2022-11-22T12:15:27.244Z,7.66
2022-11-22T12:18:08.521Z,7.67
2022-11-22T12:20:52.219Z,7.69
2022-11-22T12:23:36.201Z,7.71
2022-11-22T12:26:06.062Z,7.69
2022-11-22T12:28:36.654Z,7.65
2022-11-22T12:31:19.880Z,7.69
2022-11-22T12:33:56.371Z,7.72
2022-11-22T12:36:33.751Z,7.74
2022-11-22T12:39:07.306Z,7.74
2022-11-22T12:41:38.399Z,7.78
2022-11-22T12:44:17.324Z,7.76
2022-11-22T12:46:52.990Z,7.78
2022-11-22T12:49:34.046Z,7.83
2022-11-22T12:52:18.229Z,7.83
2022-11-22T12:55:01.977Z,7.82
2022-11-22T12:57:54.269Z,7.84
2022-11-22T13:00:29.781Z,7.87
2022-11-22T13:03:06.777Z,7.88
2022-11-22T13:05:44.802Z,7.85
2022-11-22T13:08:25.572Z,7.86
2022-11-22T13:11:05.161Z,7.91
2022-11-22T13:13:39.033Z,7.89
2022-11-22T13:16:13.098Z,7.89
2022-11-22T13:18:49.441Z,7.92
2022-11-22T13:21:32.138Z,7.90
2022-11-22T13:24:37.135Z,7.90
2022-11-22T13:27:19.764Z,7.92
2022-11-22T13:29:55.212Z,7.89
2022-11-22T13:32:32.054Z,7.93
2022-11-22T13:35:21.156Z,7.95
2022-11-22T13:37:55.882Z,7.89
2022-11-22T13:40:31.107Z,7.95
2022-11-22T13:43:51.414Z,7.94
2022-11-22T13:47:02.464Z,7.95
2022-11-22T13:49:48.288Z,7.92
2022-11-22T13:52:54.497Z,7.89
2022-11-22T13:55:42.409Z,7.91
2022-11-22T13:58:52.319Z,7.89
2022-11-22T14:02:00.055Z,7.88
2022-11-22T14:04:56.599Z,7.89
2022-11-22T14:07:37.903Z,7.93
2022-11-22T14:10:34.129Z,7.95
2022-11-22T14:13:36.006Z,7.93
2022-11-22T14:16:24.222Z,7.90
2022-11-22T14:19:07.585Z,7.89
2022-11-22T14:22:02.325Z,7.85
2022-11-22T14:24:52.721Z,7.83
2022-11-22T14:27:40.056Z,7.86
2022-11-22T14:30:22.829Z,7.88
2022-11-22T14:33:04.047Z,7.90
2022-11-22T14:35:38.430Z,7.90
2022-11-22T14:38:33.142Z,7.92
2022-11-22T14:41:54.036Z,7.91
2022-11-22T14:44:35.324Z,7.86
2022-11-22T14:47:14.848Z,7.86
2022-11-22T14:49:49.063Z,7.78
2022-11-22T14:52:24.429Z,7.82
2022-11-22T14:54:59.414Z,7.83
2022-11-22T14:57:34.504Z,7.86
2022-11-22T15:00:20.394Z,7.85
2022-11-22T15:03:38.386Z,7.83
2022-11-22T15:09:10.678Z,7.84
2022-11-22T15:10:02.169Z,7.80
2022-11-22T15:13:10.256Z,7.78
2022-11-22T15:57:37.872Z,7.76
2022-11-22T16:00:21.813Z,7.73
2022-11-22T16:02:56.531Z,7.74
2022-11-22T16:06:05.785Z,7.74
2022-11-22T16:08:26.610Z,7.74
2022-11-22T16:11:00.366Z,7.76
2022-11-22T16:13:34.728Z,7.78
2022-11-22T16:16:24.095Z,7.78
2022-11-22T16:18:54.687Z,7.79
2022-11-22T16:21:30.394Z,7.81
2022-11-22T16:24:18.778Z,7.82
2022-11-22T16:26:59.511Z,7.83
2022-11-22T16:29:33.287Z,7.84
2022-11-22T16:32:06.629Z,7.83
2022-11-22T16:34:35.700Z,7.83
2022-11-22T16:37:36.357Z,7.79
2022-11-22T16:40:11.911Z,7.80
2022-11-22T16:42:42.398Z,7.81
2022-11-22T16:45:19.109Z,7.81
2022-11-22T16:47:58.622Z,7.82
2022-11-22T16:50:41.115Z,7.82
2022-11-22T16:53:15.277Z,7.81
2022-11-22T16:55:45.350Z,7.81
2022-11-22T16:58:19.091Z,7.81
2022-11-22T17:00:50.522Z,7.81
2022-11-22T17:03:23.654Z,7.81
2022-11-22T17:05:53.426Z,7.80
2022-11-22T17:08:24.675Z,7.82
2022-11-22T17:10:54.160Z,7.83
2022-11-22T17:13:27.771Z,7.78
2022-11-22T17:15:58.535Z,7.79
2022-11-22T17:18:28.027Z,7.78
2022-11-22T17:20:57.868Z,7.79
2022-11-22T17:23:33.963Z,7.79
2022-11-22T17:26:04.092Z,7.80
2022-11-22T17:28:34.319Z,7.77
2022-11-22T17:31:05.608Z,7.79
2022-11-22T17:33:35.325Z,7.79
2022-11-22T17:36:05.470Z,7.78
2022-11-22T17:38:37.815Z,7.78
2022-11-22T17:41:07.756Z,7.76
2022-11-22T17:43:40.184Z,7.78
2022-11-22T17:46:09.828Z,7.76
2022-11-22T17:48:39.360Z,7.75
2022-11-22T17:51:11.482Z,7.75
2022-11-22T17:53:42.861Z,7.75
2022-11-22T17:56:12.779Z,7.73
2022-11-22T17:58:42.408Z,7.75
2022-11-22T18:01:15.024Z,7.76
2022-11-22T18:03:45.123Z,7.77
2022-11-22T18:06:16.957Z,7.79
2022-11-22T18:08:47.974Z,7.80
2022-11-22T18:11:20.754Z,7.79
2022-11-22T18:13:50.414Z,7.79
2022-11-22T18:16:20.206Z,7.79
2022-11-22T18:18:58.475Z,7.80
2022-11-22T18:21:29.770Z,7.80
2022-11-22T18:24:01.092Z,7.80
2022-11-22T18:26:45.652Z,7.79
2022-11-22T18:32:04.756Z,7.81
2022-11-22T18:34:33.786Z,7.83
2022-11-22T18:37:04.350Z,7.84
2022-11-22T18:39:38.722Z,7.84
2022-11-22T18:42:13.263Z,7.83
2022-11-22T18:44:42.831Z,7.83
2022-11-22T18:47:12.872Z,7.84
2022-11-22T18:49:43.193Z,7.86
2022-11-22T18:52:16.452Z,7.86
2022-11-22T18:54:49.506Z,7.84
2022-11-22T18:57:19.251Z,7.82
2022-11-22T18:59:48.689Z,7.84
2022-11-22T19:02:19.997Z,7.85
2022-11-22T19:04:49.898Z,7.85
2022-11-22T19:07:20.538Z,7.85
2022-11-22T19:09:52.063Z,7.86
2022-11-22T19:12:21.749Z,7.86
2022-11-22T19:14:50.711Z,7.87
2022-11-22T19:17:22.156Z,7.86
2022-11-22T19:19:58.249Z,7.87
2022-11-22T19:22:28.012Z,7.84
2022-11-22T19:24:58.288Z,7.84
2022-11-22T19:27:28.266Z,7.86
2022-11-22T19:29:58.594Z,7.85
2022-11-22T19:32:28.909Z,7.85
2022-11-22T19:34:59.662Z,7.85
2022-11-22T19:37:29.765Z,7.85
2022-11-22T19:40:01.179Z,7.85
2022-11-22T19:42:33.645Z,7.84
2022-11-22T19:45:03.705Z,7.86
2022-11-22T19:47:33.599Z,7.84
2022-11-22T19:50:02.516Z,7.84
2022-11-22T19:52:32.928Z,7.85
2022-11-22T19:55:03.396Z,7.85
2022-11-22T19:57:33.380Z,7.86
2022-11-22T20:00:05.328Z,7.85
2022-11-22T20:02:35.607Z,7.86
2022-11-22T20:05:05.802Z,7.85
2022-11-22T20:07:35.292Z,7.86
2022-11-22T20:10:10.147Z,7.86
2022-11-22T20:12:38.735Z,7.86
2022-11-22T20:15:09.250Z,7.87
2022-11-22T20:17:37.912Z,7.88
2022-11-22T20:20:10.755Z,7.86
2022-11-22T20:22:40.312Z,7.86
2022-11-22T20:25:13.004Z,7.86
2022-11-22T20:27:42.044Z,7.85
2022-11-22T20:30:15.655Z,7.84
2022-11-22T20:32:46.089Z,7.85
2022-11-22T20:35:15.509Z,7.86
2022-11-22T20:37:44.491Z,7.84
2022-11-22T20:40:17.480Z,7.84
2022-11-22T20:42:47.831Z,7.86
2022-11-22T20:45:17.320Z,7.86
2022-11-22T20:47:46.931Z,7.86
2022-11-22T20:50:17.812Z,7.86
2022-11-22T20:52:48.181Z,7.86
2022-11-22T20:55:20.465Z,7.87
2022-11-22T20:57:50.102Z,7.86
2022-11-22T21:00:20.729Z,7.86
2022-11-22T21:02:51.735Z,7.88
2022-11-22T21:05:21.216Z,7.86
2022-11-22T21:07:50.152Z,7.87
2022-11-22T21:10:21.244Z,7.81
2022-11-22T21:12:50.876Z,7.84
2022-11-22T21:15:20.195Z,7.86
2022-11-22T21:18:17.270Z,7.83
2022-11-22T21:20:38.985Z,7.81
2022-11-22T21:23:09.167Z,7.83
2022-11-22T21:25:40.357Z,7.83
2022-11-22T21:28:09.659Z,7.82
2022-11-22T21:30:39.002Z,7.82
2022-11-22T21:33:08.425Z,7.82
2022-11-22T21:35:38.889Z,7.82
2022-11-22T21:38:09.816Z,7.84
2022-11-22T21:40:41.911Z,7.83
2022-11-22T21:43:12.635Z,7.82
2022-11-22T21:45:41.638Z,7.83
2022-11-22T21:48:11.069Z,7.82
2022-11-22T21:50:40.626Z,7.82
2022-11-22T21:53:10.480Z,7.82
2022-11-22T21:55:49.906Z,7.81
2022-11-22T21:58:20.614Z,7.81
2022-11-22T22:00:54.940Z,7.80
2022-11-22T22:03:24.482Z,7.81
2022-11-22T22:05:56.569Z,7.82
2022-11-22T22:08:29.409Z,7.83
2022-11-22T22:11:02.487Z,7.81
2022-11-22T22:13:32.466Z,7.81
2022-11-22T22:16:06.940Z,7.83
2022-11-22T22:18:39.356Z,7.81
2022-11-22T22:21:11.018Z,7.80
2022-11-22T22:23:42.541Z,7.79
2022-11-22T22:26:15.967Z,7.80
2022-11-22T22:28:46.746Z,7.81
2022-11-22T22:31:21.704Z,7.80
2022-11-22T22:33:54.585Z,7.79
2022-11-22T22:36:25.259Z,7.79
2022-11-22T22:38:55.147Z,7.79
2022-11-22T22:41:26.098Z,7.76
2022-11-22T22:43:55.396Z,7.77
2022-11-22T22:46:26.180Z,7.80
2022-11-22T22:48:56.239Z,7.80
2022-11-22T22:51:32.427Z,7.82
2022-11-22T22:54:02.621Z,7.82
2022-11-22T22:56:37.455Z,7.80
2022-11-22T22:59:07.915Z,7.80
2022-11-22T23:01:37.190Z,7.80
2022-11-22T23:04:06.701Z,7.78
2022-11-22T23:06:38.863Z,7.82
2022-11-22T23:09:12.106Z,7.80
2022-11-22T23:12:00.305Z,7.81
2022-11-22T23:14:31.260Z,7.80
2022-11-22T23:17:00.796Z,7.82
2022-11-22T23:19:30.747Z,7.82
2022-11-22T23:22:00.876Z,7.81
2022-11-22T23:24:32.489Z,7.81
2022-11-22T23:27:04.529Z,7.82
2022-11-22T23:29:36.021Z,7.78
2022-11-22T23:32:04.900Z,7.79
2022-11-22T23:34:35.270Z,7.80
2022-11-22T23:37:04.835Z,7.80
2022-11-22T23:39:34.471Z,7.82
2022-11-22T23:42:06.955Z,7.82
2022-11-22T23:44:36.324Z,7.84
2022-11-22T23:47:06.751Z,7.84
2022-11-22T23:49:36.868Z,7.84
2022-11-22T23:52:06.554Z,7.82
2022-11-22T23:54:36.673Z,7.85
2022-11-22T23:57:08.590Z,7.85
2022-11-22T23:59:38.402Z,7.87
